sensor_id;sensor_type;location;lat;lon;timestamp;P1;durP1;ratioP1;P2;durP2;ratioP2
13408;SDS011;6775;49.574;11.170;2022-09-13T00:02:14;7.20;;;5.70;;
13408;SDS011;6775;49.574;11.170;2022-09-13T00:04:42;8.47;;;6.43;;
13408;SDS011;6775;49.574;11.170;2022-09-13T00:07:09;6.80;;;6.10;;
13408;SDS011;6775;49.574;11.170;2022-09-13T00:09:37;7.37;;;6.17;;
13408;SDS011;6775;49.574;11.170;2022-09-13T00:12:06;6.33;;;5.43;;
13408;SDS011;6775;49.574;11.170;2022-09-13T00:14:34;6.03;;;5.43;;
13408;SDS011;6775;49.574;11.170;2022-09-13T00:17:02;7.33;;;5.93;;
13408;SDS011;6775;49.574;11.170;2022-09-13T00:19:30;6.90;;;6.20;;
13408;SDS011;6775;49.574;11.170;2022-09-13T00:21:58;7.27;;;6.23;;
13408;SDS011;6775;49.574;11.170;2022-09-13T00:24:26;7.70;;;6.40;;
13408;SDS011;6775;49.574;11.170;2022-09-13T00:26:53;6.80;;;5.50;;
13408;SDS011;6775;49.574;11.170;2022-09-13T00:29:22;5.70;;;5.10;;
13408;SDS011;6775;49.574;11.170;2022-09-13T00:31:50;7.27;;;5.90;;
13408;SDS011;6775;49.574;11.170;2022-09-13T00:34:18;7.03;;;6.20;;
13408;SDS011;6775;49.574;11.170;2022-09-13T00:36:46;7.30;;;5.87;;
13408;SDS011;6775;49.574;11.170;2022-09-13T00:39:14;6.63;;;5.90;;
13408;SDS011;6775;49.574;11.170;2022-09-13T00:41:42;6.77;;;5.77;;
13408;SDS011;6775;49.574;11.170;2022-09-13T00:47:13;6.47;;;5.40;;
13408;SDS011;6775;49.574;11.170;2022-09-13T00:49:44;9.20;;;5.63;;
13408;SDS011;6775;49.574;11.170;2022-09-13T00:52:15;6.30;;;5.33;;
13408;SDS011;6775;49.574;11.170;2022-09-13T00:54:47;5.60;;;5.10;;
13408;SDS011;6775;49.574;11.170;2022-09-13T00:57:19;5.80;;;5.20;;
13408;SDS011;6775;49.574;11.170;2022-09-13T00:59:50;5.47;;;4.77;;
13408;SDS011;6775;49.574;11.170;2022-09-13T01:02:25;9.27;;;5.10;;
13408;SDS011;6775;49.574;11.170;2022-09-13T01:04:54;6.20;;;4.60;;
13408;SDS011;6775;49.574;11.170;2022-09-13T01:07:22;6.00;;;5.03;;
13408;SDS011;6775;49.574;11.170;2022-09-13T01:09:50;6.37;;;5.17;;
13408;SDS011;6775;49.574;11.170;2022-09-13T01:12:22;6.00;;;5.40;;
13408;SDS011;6775;49.574;11.170;2022-09-13T01:14:58;6.27;;;5.23;;
13408;SDS011;6775;49.574;11.170;2022-09-13T01:17:29;6.77;;;5.87;;
13408;SDS011;6775;49.574;11.170;2022-09-13T01:19:59;6.17;;;5.50;;
13408;SDS011;6775;49.574;11.170;2022-09-13T01:22:45;6.90;;;5.43;;
13408;SDS011;6775;49.574;11.170;2022-09-13T01:26:00;6.27;;;5.60;;
13408;SDS011;6775;49.574;11.170;2022-09-13T01:28:49;5.40;;;4.83;;
13408;SDS011;6775;49.574;11.170;2022-09-13T01:31:27;5.47;;;4.90;;
13408;SDS011;6775;49.574;11.170;2022-09-13T01:34:08;5.60;;;5.00;;
13408;SDS011;6775;49.574;11.170;2022-09-13T01:36:55;5.03;;;4.53;;
13408;SDS011;6775;49.574;11.170;2022-09-13T01:39:55;5.00;;;4.43;;
13408;SDS011;6775;49.574;11.170;2022-09-13T01:42:35;5.43;;;4.93;;
13408;SDS011;6775;49.574;11.170;2022-09-13T01:45:16;5.00;;;4.40;;
13408;SDS011;6775;49.574;11.170;2022-09-13T01:47:56;6.27;;;4.50;;
13408;SDS011;6775;49.574;11.170;2022-09-13T01:50:32;5.53;;;4.93;;
13408;SDS011;6775;49.574;11.170;2022-09-13T01:53:04;4.50;;;4.10;;
13408;SDS011;6775;49.574;11.170;2022-09-13T01:55:37;4.77;;;4.23;;
13408;SDS011;6775;49.574;11.170;2022-09-13T01:58:14;5.43;;;4.93;;
13408;SDS011;6775;49.574;11.170;2022-09-13T02:00:47;5.43;;;4.67;;
13408;SDS011;6775;49.574;11.170;2022-09-13T02:03:25;4.80;;;4.40;;
13408;SDS011;6775;49.574;11.170;2022-09-13T02:06:00;5.20;;;4.67;;
13408;SDS011;6775;49.574;11.170;2022-09-13T02:08:34;5.30;;;4.80;;
13408;SDS011;6775;49.574;11.170;2022-09-13T02:11:07;4.83;;;4.27;;
13408;SDS011;6775;49.574;11.170;2022-09-13T02:13:37;5.50;;;4.67;;
13408;SDS011;6775;49.574;11.170;2022-09-13T02:16:10;5.53;;;5.03;;
13408;SDS011;6775;49.574;11.170;2022-09-13T02:18:44;5.57;;;4.50;;
13408;SDS011;6775;49.574;11.170;2022-09-13T02:21:16;5.73;;;5.17;;
13408;SDS011;6775;49.574;11.170;2022-09-13T02:23:47;6.43;;;4.97;;
13408;SDS011;6775;49.574;11.170;2022-09-13T02:26:18;6.67;;;5.00;;
13408;SDS011;6775;49.574;11.170;2022-09-13T02:28:49;5.57;;;4.97;;
13408;SDS011;6775;49.574;11.170;2022-09-13T02:31:27;5.63;;;5.03;;
13408;SDS011;6775;49.574;11.170;2022-09-13T02:34:00;5.37;;;4.80;;
13408;SDS011;6775;49.574;11.170;2022-09-13T02:36:34;5.23;;;4.73;;
13408;SDS011;6775;49.574;11.170;2022-09-13T02:39:07;5.07;;;4.57;;
13408;SDS011;6775;49.574;11.170;2022-09-13T02:41:40;6.13;;;5.03;;
13408;SDS011;6775;49.574;11.170;2022-09-13T02:44:13;5.10;;;4.60;;
13408;SDS011;6775;49.574;11.170;2022-09-13T02:46:48;5.40;;;4.60;;
13408;SDS011;6775;49.574;11.170;2022-09-13T02:49:28;5.13;;;4.63;;
13408;SDS011;6775;49.574;11.170;2022-09-13T02:52:06;5.63;;;4.60;;
13408;SDS011;6775;49.574;11.170;2022-09-13T02:54:42;5.30;;;4.70;;
13408;SDS011;6775;49.574;11.170;2022-09-13T02:57:18;5.03;;;4.63;;
13408;SDS011;6775;49.574;11.170;2022-09-13T02:59:52;5.80;;;5.20;;
13408;SDS011;6775;49.574;11.170;2022-09-13T03:02:20;5.13;;;4.63;;
13408;SDS011;6775;49.574;11.170;2022-09-13T03:04:51;7.13;;;5.00;;
13408;SDS011;6775;49.574;11.170;2022-09-13T03:07:19;5.97;;;5.23;;
13408;SDS011;6775;49.574;11.170;2022-09-13T03:09:47;6.63;;;5.20;;
13408;SDS011;6775;49.574;11.170;2022-09-13T03:12:25;6.53;;;5.40;;
13408;SDS011;6775;49.574;11.170;2022-09-13T03:15:04;6.23;;;5.47;;
13408;SDS011;6775;49.574;11.170;2022-09-13T03:17:45;5.97;;;5.07;;
13408;SDS011;6775;49.574;11.170;2022-09-13T03:20:23;5.47;;;4.97;;
13408;SDS011;6775;49.574;11.170;2022-09-13T03:22:58;5.37;;;4.83;;
13408;SDS011;6775;49.574;11.170;2022-09-13T03:25:56;6.37;;;5.30;;
13408;SDS011;6775;49.574;11.170;2022-09-13T03:28:45;7.23;;;4.90;;
13408;SDS011;6775;49.574;11.170;2022-09-13T03:31:22;5.50;;;4.97;;
13408;SDS011;6775;49.574;11.170;2022-09-13T03:33:58;5.30;;;4.60;;
13408;SDS011;6775;49.574;11.170;2022-09-13T03:36:34;5.37;;;4.47;;
13408;SDS011;6775;49.574;11.170;2022-09-13T03:39:07;4.73;;;4.27;;
13408;SDS011;6775;49.574;11.170;2022-09-13T03:41:41;7.63;;;5.30;;
13408;SDS011;6775;49.574;11.170;2022-09-13T03:44:13;5.30;;;4.80;;
13408;SDS011;6775;49.574;11.170;2022-09-13T03:46:45;5.93;;;4.47;;
13408;SDS011;6775;49.574;11.170;2022-09-13T03:49:16;5.60;;;5.07;;
13408;SDS011;6775;49.574;11.170;2022-09-13T03:51:48;6.00;;;4.63;;
13408;SDS011;6775;49.574;11.170;2022-09-13T03:54:18;6.85;;;4.90;;
13408;SDS011;6775;49.574;11.170;2022-09-13T03:59:35;3.97;;;3.63;;
13408;SDS011;6775;49.574;11.170;2022-09-13T04:02:04;5.17;;;4.60;;
13408;SDS011;6775;49.574;11.170;2022-09-13T04:04:37;4.67;;;4.17;;
13408;SDS011;6775;49.574;11.170;2022-09-13T04:07:07;6.00;;;4.70;;
13408;SDS011;6775;49.574;11.170;2022-09-13T04:09:39;5.83;;;5.00;;
13408;SDS011;6775;49.574;11.170;2022-09-13T04:12:07;5.53;;;4.93;;
13408;SDS011;6775;49.574;11.170;2022-09-13T04:14:36;6.20;;;5.00;;
13408;SDS011;6775;49.574;11.170;2022-09-13T04:17:04;6.27;;;5.50;;
13408;SDS011;6775;49.574;11.170;2022-09-13T04:19:32;5.23;;;4.70;;
13408;SDS011;6775;49.574;11.170;2022-09-13T04:22:00;6.07;;;5.33;;
13408;SDS011;6775;49.574;11.170;2022-09-13T04:24:30;4.77;;;4.27;;
13408;SDS011;6775;49.574;11.170;2022-09-13T04:26:57;5.90;;;4.93;;
13408;SDS011;6775;49.574;11.170;2022-09-13T04:29:27;5.03;;;4.53;;
13408;SDS011;6775;49.574;11.170;2022-09-13T04:31:56;5.33;;;4.57;;
13408;SDS011;6775;49.574;11.170;2022-09-13T04:34:25;5.77;;;5.10;;
13408;SDS011;6775;49.574;11.170;2022-09-13T04:36:53;5.30;;;4.30;;
13408;SDS011;6775;49.574;11.170;2022-09-13T04:39:21;5.07;;;4.33;;
13408;SDS011;6775;49.574;11.170;2022-09-13T04:41:50;6.33;;;4.70;;
13408;SDS011;6775;49.574;11.170;2022-09-13T04:44:20;5.77;;;4.57;;
13408;SDS011;6775;49.574;11.170;2022-09-13T04:46:49;5.43;;;4.93;;
13408;SDS011;6775;49.574;11.170;2022-09-13T04:49:17;6.67;;;4.60;;
13408;SDS011;6775;49.574;11.170;2022-09-13T04:51:47;5.53;;;4.47;;
13408;SDS011;6775;49.574;11.170;2022-09-13T04:54:15;6.00;;;4.87;;
13408;SDS011;6775;49.574;11.170;2022-09-13T04:56:43;5.30;;;4.43;;
13408;SDS011;6775;49.574;11.170;2022-09-13T04:59:13;5.20;;;4.80;;
13408;SDS011;6775;49.574;11.170;2022-09-13T05:01:42;5.57;;;4.77;;
13408;SDS011;6775;49.574;11.170;2022-09-13T05:04:10;5.70;;;5.10;;
13408;SDS011;6775;49.574;11.170;2022-09-13T05:06:38;7.60;;;6.07;;
13408;SDS011;6775;49.574;11.170;2022-09-13T05:09:06;5.60;;;4.97;;
13408;SDS011;6775;49.574;11.170;2022-09-13T05:11:34;5.50;;;4.97;;
13408;SDS011;6775;49.574;11.170;2022-09-13T05:14:01;7.80;;;5.50;;
13408;SDS011;6775;49.574;11.170;2022-09-13T05:16:32;7.10;;;5.53;;
13408;SDS011;6775;49.574;11.170;2022-09-13T05:19:00;6.50;;;5.43;;
13408;SDS011;6775;49.574;11.170;2022-09-13T05:21:28;6.40;;;5.10;;
13408;SDS011;6775;49.574;11.170;2022-09-13T05:23:57;7.57;;;5.63;;
13408;SDS011;6775;49.574;11.170;2022-09-13T05:26:26;6.30;;;5.30;;
13408;SDS011;6775;49.574;11.170;2022-09-13T05:28:56;6.23;;;5.10;;
13408;SDS011;6775;49.574;11.170;2022-09-13T05:31:25;5.77;;;5.17;;
13408;SDS011;6775;49.574;11.170;2022-09-13T05:33:57;5.83;;;5.00;;
13408;SDS011;6775;49.574;11.170;2022-09-13T05:36:26;5.83;;;4.30;;
13408;SDS011;6775;49.574;11.170;2022-09-13T05:38:55;7.27;;;5.00;;
13408;SDS011;6775;49.574;11.170;2022-09-13T05:41:43;6.20;;;4.80;;
13408;SDS011;6775;49.574;11.170;2022-09-13T05:44:12;5.10;;;4.53;;
13408;SDS011;6775;49.574;11.170;2022-09-13T05:46:40;5.70;;;5.20;;
13408;SDS011;6775;49.574;11.170;2022-09-13T05:49:11;6.17;;;4.50;;
13408;SDS011;6775;49.574;11.170;2022-09-13T05:51:39;6.50;;;5.13;;
13408;SDS011;6775;49.574;11.170;2022-09-13T05:54:09;5.57;;;4.97;;
13408;SDS011;6775;49.574;11.170;2022-09-13T05:56:38;6.97;;;5.70;;
13408;SDS011;6775;49.574;11.170;2022-09-13T05:59:06;8.67;;;5.90;;
13408;SDS011;6775;49.574;11.170;2022-09-13T06:01:37;6.37;;;5.50;;
13408;SDS011;6775;49.574;11.170;2022-09-13T06:04:05;6.37;;;4.80;;
13408;SDS011;6775;49.574;11.170;2022-09-13T06:06:34;6.07;;;5.27;;
13408;SDS011;6775;49.574;11.170;2022-09-13T06:09:02;5.20;;;4.63;;
13408;SDS011;6775;49.574;11.170;2022-09-13T06:11:31;5.40;;;4.40;;
13408;SDS011;6775;49.574;11.170;2022-09-13T06:13:59;4.87;;;4.30;;
13408;SDS011;6775;49.574;11.170;2022-09-13T06:16:27;4.97;;;4.47;;
13408;SDS011;6775;49.574;11.170;2022-09-13T06:18:56;4.33;;;3.93;;
13408;SDS011;6775;49.574;11.170;2022-09-13T06:21:24;4.23;;;3.83;;
13408;SDS011;6775;49.574;11.170;2022-09-13T06:23:56;4.37;;;3.80;;
13408;SDS011;6775;49.574;11.170;2022-09-13T06:26:24;4.17;;;3.77;;
13408;SDS011;6775;49.574;11.170;2022-09-13T06:28:54;4.43;;;4.03;;
13408;SDS011;6775;49.574;11.170;2022-09-13T06:31:24;4.43;;;4.00;;
13408;SDS011;6775;49.574;11.170;2022-09-13T06:33:54;4.07;;;3.73;;
13408;SDS011;6775;49.574;11.170;2022-09-13T06:36:24;4.13;;;3.73;;
13408;SDS011;6775;49.574;11.170;2022-09-13T06:38:52;5.23;;;3.47;;
13408;SDS011;6775;49.574;11.170;2022-09-13T06:41:22;4.77;;;4.27;;
13408;SDS011;6775;49.574;11.170;2022-09-13T06:43:52;5.57;;;4.97;;
13408;SDS011;6775;49.574;11.170;2022-09-13T06:46:21;4.60;;;4.20;;
13408;SDS011;6775;49.574;11.170;2022-09-13T06:48:50;5.90;;;5.00;;
13408;SDS011;6775;49.574;11.170;2022-09-13T06:51:20;7.10;;;4.90;;
13408;SDS011;6775;49.574;11.170;2022-09-13T06:53:50;5.17;;;4.67;;
13408;SDS011;6775;49.574;11.170;2022-09-13T06:56:23;4.60;;;4.07;;
13408;SDS011;6775;49.574;11.170;2022-09-13T06:58:53;5.43;;;4.93;;
13408;SDS011;6775;49.574;11.170;2022-09-13T07:01:23;5.23;;;4.40;;
13408;SDS011;6775;49.574;11.170;2022-09-13T07:03:54;4.70;;;4.20;;
13408;SDS011;6775;49.574;11.170;2022-09-13T07:06:25;5.83;;;4.00;;
13408;SDS011;6775;49.574;11.170;2022-09-13T07:08:55;4.97;;;4.10;;
13408;SDS011;6775;49.574;11.170;2022-09-13T07:11:25;3.80;;;3.50;;
13408;SDS011;6775;49.574;11.170;2022-09-13T07:13:56;5.67;;;3.70;;
13408;SDS011;6775;49.574;11.170;2022-09-13T07:16:26;3.90;;;3.37;;
13408;SDS011;6775;49.574;11.170;2022-09-13T07:18:56;4.93;;;3.70;;
13408;SDS011;6775;49.574;11.170;2022-09-13T07:21:25;4.90;;;3.63;;
13408;SDS011;6775;49.574;11.170;2022-09-13T07:23:54;3.93;;;3.53;;
13408;SDS011;6775;49.574;11.170;2022-09-13T07:26:24;3.93;;;3.30;;
13408;SDS011;6775;49.574;11.170;2022-09-13T07:28:54;4.30;;;3.90;;
13408;SDS011;6775;49.574;11.170;2022-09-13T07:31:24;4.80;;;4.10;;
13408;SDS011;6775;49.574;11.170;2022-09-13T07:33:54;5.63;;;5.13;;
13408;SDS011;6775;49.574;11.170;2022-09-13T07:36:24;5.73;;;4.67;;
13408;SDS011;6775;49.574;11.170;2022-09-13T07:38:53;5.00;;;4.20;;
13408;SDS011;6775;49.574;11.170;2022-09-13T07:41:22;5.03;;;4.23;;
13408;SDS011;6775;49.574;11.170;2022-09-13T07:43:53;3.80;;;3.43;;
13408;SDS011;6775;49.574;11.170;2022-09-13T07:46:21;3.90;;;3.17;;
13408;SDS011;6775;49.574;11.170;2022-09-13T07:48:51;3.53;;;3.23;;
13408;SDS011;6775;49.574;11.170;2022-09-13T07:51:20;3.60;;;2.80;;
13408;SDS011;6775;49.574;11.170;2022-09-13T07:53:50;3.47;;;3.17;;
13408;SDS011;6775;49.574;11.170;2022-09-13T07:56:23;3.43;;;3.10;;
13408;SDS011;6775;49.574;11.170;2022-09-13T07:58:54;2.90;;;2.70;;
13408;SDS011;6775;49.574;11.170;2022-09-13T08:01:26;4.37;;;4.00;;
13408;SDS011;6775;49.574;11.170;2022-09-13T08:03:56;4.27;;;3.40;;
13408;SDS011;6775;49.574;11.170;2022-09-13T08:06:25;4.20;;;2.97;;
13408;SDS011;6775;49.574;11.170;2022-09-13T08:08:55;3.10;;;2.90;;
13408;SDS011;6775;49.574;11.170;2022-09-13T08:11:25;3.23;;;2.97;;
13408;SDS011;6775;49.574;11.170;2022-09-13T08:14:01;3.50;;;3.20;;
13408;SDS011;6775;49.574;11.170;2022-09-13T08:16:30;3.20;;;2.90;;
13408;SDS011;6775;49.574;11.170;2022-09-13T08:18:59;3.77;;;3.13;;
13408;SDS011;6775;49.574;11.170;2022-09-13T08:21:30;3.27;;;2.80;;
13408;SDS011;6775;49.574;11.170;2022-09-13T08:24:00;3.43;;;3.03;;
13408;SDS011;6775;49.574;11.170;2022-09-13T08:26:28;3.30;;;3.00;;
13408;SDS011;6775;49.574;11.170;2022-09-13T08:28:58;3.17;;;2.80;;
13408;SDS011;6775;49.574;11.170;2022-09-13T08:31:29;3.07;;;2.87;;
13408;SDS011;6775;49.574;11.170;2022-09-13T08:33:57;3.03;;;2.77;;
13408;SDS011;6775;49.574;11.170;2022-09-13T08:36:26;2.80;;;2.60;;
13408;SDS011;6775;49.574;11.170;2022-09-13T08:38:56;3.20;;;2.90;;
13408;SDS011;6775;49.574;11.170;2022-09-13T08:41:32;3.67;;;2.43;;
13408;SDS011;6775;49.574;11.170;2022-09-13T08:44:16;3.33;;;2.90;;
13408;SDS011;6775;49.574;11.170;2022-09-13T08:46:51;3.30;;;2.80;;
13408;SDS011;6775;49.574;11.170;2022-09-13T08:49:25;5.53;;;3.57;;
13408;SDS011;6775;49.574;11.170;2022-09-13T08:51:57;2.90;;;2.63;;
13408;SDS011;6775;49.574;11.170;2022-09-13T08:54:29;3.20;;;2.73;;
13408;SDS011;6775;49.574;11.170;2022-09-13T08:56:57;2.80;;;2.60;;
13408;SDS011;6775;49.574;11.170;2022-09-13T08:59:37;4.03;;;2.60;;
13408;SDS011;6775;49.574;11.170;2022-09-13T09:02:21;3.20;;;2.53;;
13408;SDS011;6775;49.574;11.170;2022-09-13T09:04:57;5.33;;;2.60;;
13408;SDS011;6775;49.574;11.170;2022-09-13T09:07:32;3.53;;;3.23;;
13408;SDS011;6775;49.574;11.170;2022-09-13T09:10:04;2.90;;;2.70;;
13408;SDS011;6775;49.574;11.170;2022-09-13T09:12:35;2.53;;;2.40;;
13408;SDS011;6775;49.574;11.170;2022-09-13T09:15:12;2.50;;;2.30;;
13408;SDS011;6775;49.574;11.170;2022-09-13T09:17:47;2.10;;;2.00;;
13408;SDS011;6775;49.574;11.170;2022-09-13T09:20:23;3.07;;;2.87;;
13408;SDS011;6775;49.574;11.170;2022-09-13T09:22:58;3.20;;;2.67;;
13408;SDS011;6775;49.574;11.170;2022-09-13T09:25:29;2.60;;;2.40;;
13408;SDS011;6775;49.574;11.170;2022-09-13T09:27:58;2.50;;;2.30;;
13408;SDS011;6775;49.574;11.170;2022-09-13T09:30:35;2.20;;;2.00;;
13408;SDS011;6775;49.574;11.170;2022-09-13T09:33:12;2.70;;;2.50;;
13408;SDS011;6775;49.574;11.170;2022-09-13T09:35:53;2.30;;;2.20;;
13408;SDS011;6775;49.574;11.170;2022-09-13T09:38:32;2.13;;;2.03;;
13408;SDS011;6775;49.574;11.170;2022-09-13T09:41:09;2.50;;;2.30;;
13408;SDS011;6775;49.574;11.170;2022-09-13T09:43:45;2.50;;;2.30;;
13408;SDS011;6775;49.574;11.170;2022-09-13T09:46:20;1.93;;;1.83;;
13408;SDS011;6775;49.574;11.170;2022-09-13T09:48:53;3.03;;;2.20;;
13408;SDS011;6775;49.574;11.170;2022-09-13T09:51:27;3.00;;;2.80;;
13408;SDS011;6775;49.574;11.170;2022-09-13T09:53:58;3.23;;;2.40;;
13408;SDS011;6775;49.574;11.170;2022-09-13T09:56:30;2.73;;;2.53;;
13408;SDS011;6775;49.574;11.170;2022-09-13T09:58:59;4.30;;;3.53;;
13408;SDS011;6775;49.574;11.170;2022-09-13T10:01:30;2.97;;;2.67;;
13408;SDS011;6775;49.574;11.170;2022-09-13T10:04:02;3.80;;;3.40;;
13408;SDS011;6775;49.574;11.170;2022-09-13T10:06:34;3.97;;;2.90;;
13408;SDS011;6775;49.574;11.170;2022-09-13T10:09:04;2.73;;;2.53;;
13408;SDS011;6775;49.574;11.170;2022-09-13T10:11:37;3.40;;;3.10;;
13408;SDS011;6775;49.574;11.170;2022-09-13T10:14:27;3.20;;;2.90;;
13408;SDS011;6775;49.574;11.170;2022-09-13T10:17:05;3.50;;;2.77;;
13408;SDS011;6775;49.574;11.170;2022-09-13T10:19:49;2.80;;;2.60;;
13408;SDS011;6775;49.574;11.170;2022-09-13T10:22:19;2.83;;;2.60;;
13408;SDS011;6775;49.574;11.170;2022-09-13T10:24:48;3.40;;;3.10;;
13408;SDS011;6775;49.574;11.170;2022-09-13T10:27:27;2.97;;;2.70;;
13408;SDS011;6775;49.574;11.170;2022-09-13T10:29:59;2.90;;;2.60;;
13408;SDS011;6775;49.574;11.170;2022-09-13T10:32:31;2.60;;;2.40;;
13408;SDS011;6775;49.574;11.170;2022-09-13T10:35:01;3.07;;;2.77;;
13408;SDS011;6775;49.574;11.170;2022-09-13T10:37:36;3.10;;;2.63;;
13408;SDS011;6775;49.574;11.170;2022-09-13T10:40:12;5.30;;;3.57;;
13408;SDS011;6775;49.574;11.170;2022-09-13T10:42:49;3.00;;;2.53;;
13408;SDS011;6775;49.574;11.170;2022-09-13T10:45:21;2.70;;;2.50;;
13408;SDS011;6775;49.574;11.170;2022-09-13T10:47:53;2.30;;;2.10;;
13408;SDS011;6775;49.574;11.170;2022-09-13T10:50:31;3.27;;;2.57;;
13408;SDS011;6775;49.574;11.170;2022-09-13T10:53:01;2.67;;;2.47;;
13408;SDS011;6775;49.574;11.170;2022-09-13T10:55:34;2.90;;;2.60;;
13408;SDS011;6775;49.574;11.170;2022-09-13T10:58:17;3.17;;;2.93;;
13408;SDS011;6775;49.574;11.170;2022-09-13T11:00:57;2.43;;;2.23;;
13408;SDS011;6775;49.574;11.170;2022-09-13T11:06:40;2.97;;;2.40;;
13408;SDS011;6775;49.574;11.170;2022-09-13T11:09:16;2.80;;;2.60;;
13408;SDS011;6775;49.574;11.170;2022-09-13T11:11:50;2.67;;;2.47;;
13408;SDS011;6775;49.574;11.170;2022-09-13T11:14:28;2.97;;;2.77;;
13408;SDS011;6775;49.574;11.170;2022-09-13T11:17:11;3.03;;;2.43;;
13408;SDS011;6775;49.574;11.170;2022-09-13T11:22:49;5.83;;;2.80;;
13408;SDS011;6775;49.574;11.170;2022-09-13T11:25:43;3.50;;;2.73;;
13408;SDS011;6775;49.574;11.170;2022-09-13T11:28:23;2.53;;;2.30;;
13408;SDS011;6775;49.574;11.170;2022-09-13T11:31:03;2.57;;;2.20;;
13408;SDS011;6775;49.574;11.170;2022-09-13T11:33:45;2.77;;;2.57;;
13408;SDS011;6775;49.574;11.170;2022-09-13T11:36:23;2.87;;;2.67;;
13408;SDS011;6775;49.574;11.170;2022-09-13T11:39:14;2.30;;;2.10;;
13408;SDS011;6775;49.574;11.170;2022-09-13T11:41:52;2.67;;;2.47;;
13408;SDS011;6775;49.574;11.170;2022-09-13T11:44:34;2.40;;;2.13;;
13408;SDS011;6775;49.574;11.170;2022-09-13T11:47:17;2.23;;;2.10;;
13408;SDS011;6775;49.574;11.170;2022-09-13T11:53:03;3.90;;;2.53;;
13408;SDS011;6775;49.574;11.170;2022-09-13T11:55:42;2.50;;;2.30;;
13408;SDS011;6775;49.574;11.170;2022-09-13T11:58:17;2.07;;;1.67;;
13408;SDS011;6775;49.574;11.170;2022-09-13T12:00:50;3.47;;;2.40;;
13408;SDS011;6775;49.574;11.170;2022-09-13T12:03:23;3.97;;;2.23;;
13408;SDS011;6775;49.574;11.170;2022-09-13T12:05:58;2.63;;;2.43;;
13408;SDS011;6775;49.574;11.170;2022-09-13T12:08:31;3.47;;;2.23;;
13408;SDS011;6775;49.574;11.170;2022-09-13T12:11:03;3.27;;;2.40;;
13408;SDS011;6775;49.574;11.170;2022-09-13T12:13:42;2.30;;;2.10;;
13408;SDS011;6775;49.574;11.170;2022-09-13T12:16:15;2.13;;;1.93;;
13408;SDS011;6775;49.574;11.170;2022-09-13T12:18:50;2.60;;;2.40;;
13408;SDS011;6775;49.574;11.170;2022-09-13T12:21:22;3.60;;;2.57;;
13408;SDS011;6775;49.574;11.170;2022-09-13T12:23:54;5.27;;;3.27;;
13408;SDS011;6775;49.574;11.170;2022-09-13T12:26:31;4.50;;;2.77;;
13408;SDS011;6775;49.574;11.170;2022-09-13T12:29:04;4.67;;;2.73;;
13408;SDS011;6775;49.574;11.170;2022-09-13T12:31:40;4.33;;;3.30;;
13408;SDS011;6775;49.574;11.170;2022-09-13T12:34:08;3.73;;;2.93;;
13408;SDS011;6775;49.574;11.170;2022-09-13T12:36:48;3.10;;;2.33;;
13408;SDS011;6775;49.574;11.170;2022-09-13T12:39:28;3.37;;;3.07;;
13408;SDS011;6775;49.574;11.170;2022-09-13T12:42:35;2.80;;;2.50;;
13408;SDS011;6775;49.574;11.170;2022-09-13T12:45:19;3.80;;;3.10;;
13408;SDS011;6775;49.574;11.170;2022-09-13T12:48:17;3.17;;;2.87;;
13408;SDS011;6775;49.574;11.170;2022-09-13T12:51:07;3.23;;;2.93;;
13408;SDS011;6775;49.574;11.170;2022-09-13T12:54:00;2.90;;;2.70;;
13408;SDS011;6775;49.574;11.170;2022-09-13T12:59:55;2.80;;;2.50;;
13408;SDS011;6775;49.574;11.170;2022-09-13T13:02:38;2.20;;;2.00;;
13408;SDS011;6775;49.574;11.170;2022-09-13T13:05:23;2.60;;;2.40;;
13408;SDS011;6775;49.574;11.170;2022-09-13T13:07:54;2.40;;;2.20;;
13408;SDS011;6775;49.574;11.170;2022-09-13T13:10:27;3.20;;;2.37;;
13408;SDS011;6775;49.574;11.170;2022-09-13T13:13:10;2.97;;;2.73;;
13408;SDS011;6775;49.574;11.170;2022-09-13T13:15:54;2.60;;;1.97;;
13408;SDS011;6775;49.574;11.170;2022-09-13T13:18:29;2.50;;;2.30;;
13408;SDS011;6775;49.574;11.170;2022-09-13T13:21:05;2.43;;;2.23;;
13408;SDS011;6775;49.574;11.170;2022-09-13T13:26:51;2.27;;;2.07;;
13408;SDS011;6775;49.574;11.170;2022-09-13T13:29:20;2.93;;;2.50;;
13408;SDS011;6775;49.574;11.170;2022-09-13T13:32:09;3.23;;;2.93;;
13408;SDS011;6775;49.574;11.170;2022-09-13T13:34:40;2.43;;;2.23;;
13408;SDS011;6775;49.574;11.170;2022-09-13T13:37:26;4.63;;;4.03;;
13408;SDS011;6775;49.574;11.170;2022-09-13T13:43:14;2.77;;;2.57;;
13408;SDS011;6775;49.574;11.170;2022-09-13T13:46:21;2.70;;;2.43;;
13408;SDS011;6775;49.574;11.170;2022-09-13T13:48:52;2.67;;;2.47;;
13408;SDS011;6775;49.574;11.170;2022-09-13T13:51:21;2.40;;;2.23;;
13408;SDS011;6775;49.574;11.170;2022-09-13T13:53:56;2.17;;;2.07;;
13408;SDS011;6775;49.574;11.170;2022-09-13T13:56:45;3.00;;;2.70;;
13408;SDS011;6775;49.574;11.170;2022-09-13T13:59:20;2.30;;;2.10;;
13408;SDS011;6775;49.574;11.170;2022-09-13T14:01:53;2.40;;;2.20;;
13408;SDS011;6775;49.574;11.170;2022-09-13T14:04:36;2.50;;;2.30;;
13408;SDS011;6775;49.574;11.170;2022-09-13T14:07:30;2.57;;;2.37;;
13408;SDS011;6775;49.574;11.170;2022-09-13T14:10:16;2.13;;;2.00;;
13408;SDS011;6775;49.574;11.170;2022-09-13T14:12:53;2.57;;;2.37;;
13408;SDS011;6775;49.574;11.170;2022-09-13T14:15:43;2.63;;;2.40;;
13408;SDS011;6775;49.574;11.170;2022-09-13T14:21:19;2.20;;;2.00;;
13408;SDS011;6775;49.574;11.170;2022-09-13T14:23:49;2.23;;;2.03;;
13408;SDS011;6775;49.574;11.170;2022-09-13T14:26:18;1.93;;;1.80;;
13408;SDS011;6775;49.574;11.170;2022-09-13T14:28:47;2.10;;;2.00;;
13408;SDS011;6775;49.574;11.170;2022-09-13T14:31:16;2.30;;;2.10;;
13408;SDS011;6775;49.574;11.170;2022-09-13T14:33:47;2.50;;;2.30;;
13408;SDS011;6775;49.574;11.170;2022-09-13T14:36:16;2.10;;;1.90;;
13408;SDS011;6775;49.574;11.170;2022-09-13T14:38:47;2.30;;;2.10;;
13408;SDS011;6775;49.574;11.170;2022-09-13T14:41:21;2.43;;;2.10;;
13408;SDS011;6775;49.574;11.170;2022-09-13T14:44:07;2.73;;;2.10;;
13408;SDS011;6775;49.574;11.170;2022-09-13T14:46:50;2.43;;;2.23;;
13408;SDS011;6775;49.574;11.170;2022-09-13T14:49:24;2.10;;;2.00;;
13408;SDS011;6775;49.574;11.170;2022-09-13T14:51:58;2.30;;;2.10;;
13408;SDS011;6775;49.574;11.170;2022-09-13T14:54:30;2.50;;;2.30;;
13408;SDS011;6775;49.574;11.170;2022-09-13T14:57:04;1.83;;;1.73;;
13408;SDS011;6775;49.574;11.170;2022-09-13T14:59:35;1.97;;;1.80;;
13408;SDS011;6775;49.574;11.170;2022-09-13T15:02:15;2.00;;;1.90;;
13408;SDS011;6775;49.574;11.170;2022-09-13T15:04:51;1.80;;;1.70;;
13408;SDS011;6775;49.574;11.170;2022-09-13T15:07:22;2.33;;;2.13;;
13408;SDS011;6775;49.574;11.170;2022-09-13T15:09:55;1.97;;;1.87;;
13408;SDS011;6775;49.574;11.170;2022-09-13T15:12:26;2.20;;;2.00;;
13408;SDS011;6775;49.574;11.170;2022-09-13T15:17:53;2.40;;;2.20;;
13408;SDS011;6775;49.574;11.170;2022-09-13T15:20:24;2.10;;;2.00;;
13408;SDS011;6775;49.574;11.170;2022-09-13T15:22:54;2.00;;;1.90;;
13408;SDS011;6775;49.574;11.170;2022-09-13T15:25:24;2.47;;;2.27;;
13408;SDS011;6775;49.574;11.170;2022-09-13T15:27:53;2.20;;;2.00;;
13408;SDS011;6775;49.574;11.170;2022-09-13T15:30:23;2.47;;;2.27;;
13408;SDS011;6775;49.574;11.170;2022-09-13T15:33:04;2.00;;;1.90;;
13408;SDS011;6775;49.574;11.170;2022-09-13T15:35:44;1.70;;;1.60;;
13408;SDS011;6775;49.574;11.170;2022-09-13T15:38:14;2.17;;;1.97;;
13408;SDS011;6775;49.574;11.170;2022-09-13T15:40:46;2.20;;;2.03;;
13408;SDS011;6775;49.574;11.170;2022-09-13T15:43:23;2.67;;;2.33;;
13408;SDS011;6775;49.574;11.170;2022-09-13T15:45:51;3.40;;;2.60;;
13408;SDS011;6775;49.574;11.170;2022-09-13T15:48:21;2.50;;;2.30;;
13408;SDS011;6775;49.574;11.170;2022-09-13T15:51:02;2.67;;;2.47;;
13408;SDS011;6775;49.574;11.170;2022-09-13T15:53:33;2.90;;;2.70;;
13408;SDS011;6775;49.574;11.170;2022-09-13T15:56:02;2.37;;;2.17;;
13408;SDS011;6775;49.574;11.170;2022-09-13T15:58:31;3.67;;;2.63;;